Strona główna
METAR-TAF:

METAR-TAF

Lotnisko :

Port lotniczy Caracas

Caracas, Wenezuela

Szerokość geograficzna: 10-36N, Długość geograficzna: 066-59W, wysokość: 43 m

Aktualna obserwacja pogody

Raport powstał 25 minut temu, godzina 11:00 UTC
Cisza
Temperatura 29°C
Wilgotność 66%
Ciśnienie 1012 hPa
Widzialność 10 km lub więcej
Rozproszone chmury na wysokości 1600 ft

METAR: SVMI 191100Z 00000KT 9999 SCT016 29/22 Q1012

czas: 07:25 (11:25 UTC)

Prognoza

Raport powstał 7 godziny i 25 minut temu, godzina 04:00 UTC
Prognoza ważna od 19 godzina 06 UTC do 20 godzina 06 UTC
Wiatr kt od północ
Widzialność 10 km lub więcej
Przerywane chmury na wysokości 1600 ft
Przejściowo
od 19 godzina 06 UTC do 19 godzina 10 UTC
Wiatr kt od północ
Widzialność: 8000 m
Przerywane chmury na wysokości 1000 ft
w pobliżu, mżawka

TAF: SVMI 190400Z 1906/2006 00000KT 9999 BKN016 TX33/1800Z TN24/0800Z TEMPO 1906/1910 00000KT 8000 VCDZ BKN010

Obserwacja i prognoza pogody dla ponad 4000 lotnisk (raport METAR i TAF).

Dostępne stacje oznaczono żółtymi i czerwonymi punktami na mapie.

Najedź kursorem aby zobaczyć nazwę stacji.

Kliknij aby zobaczyć obserwacje i prognozy pogody.

Aby zmienić mapę: kliknij na zielony przycisk z czarnym krzyżykiem, aby powiększyć; na zielony przycisk z myślnikiem, aby pomniejszyć; na zielone strzałki, aby przejść do map sąsiednich.


METAR-TAF: